sensor_id;sensor_type;location;lat;lon;timestamp;P1;durP1;ratioP1;P2;durP2;ratioP2
58260;SDS011;44058;52.898;6.502;2023-07-08T00:00:20;5.82;;;3.47;;
58260;SDS011;44058;52.898;6.502;2023-07-08T00:02:46;7.18;;;2.85;;
58260;SDS011;44058;52.898;6.502;2023-07-08T00:05:13;5.82;;;3.33;;
58260;SDS011;44058;52.898;6.502;2023-07-08T00:07:40;4.03;;;3.13;;
58260;SDS011;44058;52.898;6.502;2023-07-08T00:12:36;4.72;;;2.83;;
58260;SDS011;44058;52.898;6.502;2023-07-08T00:15:02;5.78;;;3.10;;
58260;SDS011;44058;52.898;6.502;2023-07-08T00:17:28;6.05;;;3.40;;
58260;SDS011;44058;52.898;6.502;2023-07-08T00:19:55;4.20;;;3.30;;
58260;SDS011;44058;52.898;6.502;2023-07-08T00:22:21;4.15;;;2.90;;
58260;SDS011;44058;52.898;6.502;2023-07-08T00:24:49;5.68;;;3.13;;
58260;SDS011;44058;52.898;6.502;2023-07-08T00:27:15;4.97;;;3.50;;
58260;SDS011;44058;52.898;6.502;2023-07-08T00:29:42;4.40;;;3.40;;
58260;SDS011;44058;52.898;6.502;2023-07-08T00:32:12;6.95;;;3.67;;
58260;SDS011;44058;52.898;6.502;2023-07-08T00:34:39;6.03;;;3.42;;
58260;SDS011;44058;52.898;6.502;2023-07-08T00:37:08;6.32;;;3.40;;
58260;SDS011;44058;52.898;6.502;2023-07-08T00:39:35;5.70;;;3.45;;
58260;SDS011;44058;52.898;6.502;2023-07-08T00:42:01;4.55;;;3.63;;
58260;SDS011;44058;52.898;6.502;2023-07-08T00:44:28;6.20;;;3.58;;
58260;SDS011;44058;52.898;6.502;2023-07-08T00:47:04;6.47;;;3.55;;
58260;SDS011;44058;52.898;6.502;2023-07-08T00:52:19;3.95;;;3.35;;
58260;SDS011;44058;52.898;6.502;2023-07-08T00:54:48;3.97;;;3.22;;
58260;SDS011;44058;52.898;6.502;2023-07-08T00:57:14;4.53;;;3.35;;
58260;SDS011;44058;52.898;6.502;2023-07-08T00:59:45;7.40;;;3.30;;
58260;SDS011;44058;52.898;6.502;2023-07-08T01:02:13;5.80;;;3.55;;
58260;SDS011;44058;52.898;6.502;2023-07-08T01:04:52;4.30;;;3.38;;
58260;SDS011;44058;52.898;6.502;2023-07-08T01:07:18;4.80;;;3.80;;
58260;SDS011;44058;52.898;6.502;2023-07-08T01:09:47;5.22;;;3.55;;
58260;SDS011;44058;52.898;6.502;2023-07-08T01:12:15;3.88;;;3.40;;
58260;SDS011;44058;52.898;6.502;2023-07-08T01:14:42;6.30;;;3.83;;
58260;SDS011;44058;52.898;6.502;2023-07-08T01:17:09;4.82;;;3.80;;
58260;SDS011;44058;52.898;6.502;2023-07-08T01:19:43;7.53;;;3.53;;
58260;SDS011;44058;52.898;6.502;2023-07-08T01:22:10;3.83;;;3.30;;
58260;SDS011;44058;52.898;6.502;2023-07-08T01:24:37;5.32;;;3.63;;
58260;SDS011;44058;52.898;6.502;2023-07-08T01:27:05;5.60;;;3.70;;
58260;SDS011;44058;52.898;6.502;2023-07-08T01:29:31;5.45;;;3.78;;
58260;SDS011;44058;52.898;6.502;2023-07-08T01:31:58;6.05;;;3.92;;
58260;SDS011;44058;52.898;6.502;2023-07-08T01:34:31;5.85;;;3.63;;
58260;SDS011;44058;52.898;6.502;2023-07-08T01:36:57;5.57;;;3.50;;
58260;SDS011;44058;52.898;6.502;2023-07-08T01:39:26;5.97;;;3.50;;
58260;SDS011;44058;52.898;6.502;2023-07-08T01:41:53;6.70;;;3.38;;
58260;SDS011;44058;52.898;6.502;2023-07-08T01:44:33;4.55;;;3.53;;
58260;SDS011;44058;52.898;6.502;2023-07-08T01:47:32;5.07;;;3.75;;
58260;SDS011;44058;52.898;6.502;2023-07-08T01:49:51;6.10;;;3.67;;
58260;SDS011;44058;52.898;6.502;2023-07-08T01:52:17;5.47;;;3.75;;
58260;SDS011;44058;52.898;6.502;2023-07-08T01:54:43;5.90;;;3.83;;
58260;SDS011;44058;52.898;6.502;2023-07-08T01:57:09;5.78;;;3.38;;
58260;SDS011;44058;52.898;6.502;2023-07-08T01:59:36;7.90;;;3.83;;
58260;SDS011;44058;52.898;6.502;2023-07-08T02:02:02;3.45;;;2.95;;
58260;SDS011;44058;52.898;6.502;2023-07-08T02:04:28;5.07;;;3.92;;
58260;SDS011;44058;52.898;6.502;2023-07-08T02:06:56;4.78;;;3.17;;
58260;SDS011;44058;52.898;6.502;2023-07-08T02:09:23;4.63;;;3.67;;
58260;SDS011;44058;52.898;6.502;2023-07-08T02:11:50;9.20;;;4.18;;
58260;SDS011;44058;52.898;6.502;2023-07-08T02:14:16;5.30;;;4.15;;
58260;SDS011;44058;52.898;6.502;2023-07-08T02:16:42;7.15;;;4.20;;
58260;SDS011;44058;52.898;6.502;2023-07-08T02:19:09;6.75;;;4.30;;
58260;SDS011;44058;52.898;6.502;2023-07-08T02:21:36;6.15;;;3.70;;
58260;SDS011;44058;52.898;6.502;2023-07-08T02:24:03;5.35;;;3.45;;
58260;SDS011;44058;52.898;6.502;2023-07-08T02:26:30;5.05;;;4.03;;
58260;SDS011;44058;52.898;6.502;2023-07-08T02:28:57;5.22;;;3.65;;
58260;SDS011;44058;52.898;6.502;2023-07-08T02:31:24;4.78;;;3.42;;
58260;SDS011;44058;52.898;6.502;2023-07-08T02:33:50;6.45;;;4.10;;
58260;SDS011;44058;52.898;6.502;2023-07-08T02:36:16;4.75;;;3.45;;
58260;SDS011;44058;52.898;6.502;2023-07-08T02:38:42;7.10;;;4.28;;
58260;SDS011;44058;52.898;6.502;2023-07-08T02:41:08;5.43;;;3.65;;
58260;SDS011;44058;52.898;6.502;2023-07-08T02:43:36;7.28;;;4.40;;
58260;SDS011;44058;52.898;6.502;2023-07-08T02:46:02;6.32;;;4.00;;
58260;SDS011;44058;52.898;6.502;2023-07-08T02:48:28;5.70;;;3.80;;
58260;SDS011;44058;52.898;6.502;2023-07-08T02:50:58;8.65;;;3.75;;
58260;SDS011;44058;52.898;6.502;2023-07-08T02:53:24;6.35;;;4.03;;
58260;SDS011;44058;52.898;6.502;2023-07-08T02:55:50;6.18;;;4.05;;
58260;SDS011;44058;52.898;6.502;2023-07-08T02:58:16;4.30;;;3.55;;
58260;SDS011;44058;52.898;6.502;2023-07-08T03:00:42;4.20;;;3.58;;
58260;SDS011;44058;52.898;6.502;2023-07-08T03:03:08;6.50;;;4.10;;
58260;SDS011;44058;52.898;6.502;2023-07-08T03:05:34;6.22;;;3.78;;
58260;SDS011;44058;52.898;6.502;2023-07-08T03:08:01;6.10;;;3.72;;
58260;SDS011;44058;52.898;6.502;2023-07-08T03:10:27;4.38;;;3.72;;
58260;SDS011;44058;52.898;6.502;2023-07-08T03:12:53;5.95;;;4.03;;
58260;SDS011;44058;52.898;6.502;2023-07-08T03:15:19;5.70;;;3.90;;
58260;SDS011;44058;52.898;6.502;2023-07-08T03:17:45;5.85;;;4.00;;
58260;SDS011;44058;52.898;6.502;2023-07-08T03:20:11;4.57;;;3.75;;
58260;SDS011;44058;52.898;6.502;2023-07-08T03:22:37;4.28;;;3.88;;
58260;SDS011;44058;52.898;6.502;2023-07-08T03:25:04;5.63;;;4.10;;
58260;SDS011;44058;52.898;6.502;2023-07-08T03:27:31;8.82;;;3.85;;
58260;SDS011;44058;52.898;6.502;2023-07-08T03:29:57;5.07;;;3.90;;
58260;SDS011;44058;52.898;6.502;2023-07-08T03:32:23;4.40;;;4.00;;
58260;SDS011;44058;52.898;6.502;2023-07-08T03:34:50;6.40;;;3.90;;
58260;SDS011;44058;52.898;6.502;2023-07-08T03:37:17;6.15;;;4.53;;
58260;SDS011;44058;52.898;6.502;2023-07-08T03:39:43;5.55;;;4.10;;
58260;SDS011;44058;52.898;6.502;2023-07-08T03:42:09;6.65;;;4.13;;
58260;SDS011;44058;52.898;6.502;2023-07-08T03:44:35;4.95;;;3.65;;
58260;SDS011;44058;52.898;6.502;2023-07-08T03:47:01;6.32;;;4.43;;
58260;SDS011;44058;52.898;6.502;2023-07-08T03:49:27;5.85;;;3.75;;
58260;SDS011;44058;52.898;6.502;2023-07-08T03:51:54;5.13;;;4.38;;
58260;SDS011;44058;52.898;6.502;2023-07-08T03:54:21;5.30;;;3.92;;
58260;SDS011;44058;52.898;6.502;2023-07-08T03:56:48;4.77;;;3.80;;
58260;SDS011;44058;52.898;6.502;2023-07-08T03:59:14;5.78;;;4.00;;
58260;SDS011;44058;52.898;6.502;2023-07-08T04:01:40;6.00;;;3.70;;
58260;SDS011;44058;52.898;6.502;2023-07-08T04:04:06;4.63;;;3.78;;
58260;SDS011;44058;52.898;6.502;2023-07-08T04:06:34;5.18;;;3.95;;
58260;SDS011;44058;52.898;6.502;2023-07-08T04:09:00;5.45;;;4.10;;
58260;SDS011;44058;52.898;6.502;2023-07-08T04:11:26;5.47;;;4.05;;
58260;SDS011;44058;52.898;6.502;2023-07-08T04:13:52;4.90;;;4.28;;
58260;SDS011;44058;52.898;6.502;2023-07-08T04:16:22;6.75;;;4.20;;
58260;SDS011;44058;52.898;6.502;2023-07-08T04:18:49;6.20;;;4.20;;
58260;SDS011;44058;52.898;6.502;2023-07-08T04:21:18;6.25;;;3.92;;
58260;SDS011;44058;52.898;6.502;2023-07-08T04:23:44;5.00;;;3.70;;
58260;SDS011;44058;52.898;6.502;2023-07-08T04:26:11;7.82;;;3.85;;
58260;SDS011;44058;52.898;6.502;2023-07-08T04:28:37;4.93;;;3.90;;
58260;SDS011;44058;52.898;6.502;2023-07-08T04:31:03;4.55;;;3.75;;
58260;SDS011;44058;52.898;6.502;2023-07-08T04:33:30;4.72;;;3.78;;
58260;SDS011;44058;52.898;6.502;2023-07-08T04:35:56;4.68;;;3.67;;
58260;SDS011;44058;52.898;6.502;2023-07-08T04:38:23;5.75;;;4.10;;
58260;SDS011;44058;52.898;6.502;2023-07-08T04:40:50;5.65;;;3.90;;
58260;SDS011;44058;52.898;6.502;2023-07-08T04:43:16;6.55;;;3.95;;
58260;SDS011;44058;52.898;6.502;2023-07-08T04:45:44;5.57;;;4.03;;
58260;SDS011;44058;52.898;6.502;2023-07-08T04:48:11;6.35;;;4.05;;
58260;SDS011;44058;52.898;6.502;2023-07-08T04:50:39;4.72;;;3.65;;
58260;SDS011;44058;52.898;6.502;2023-07-08T04:53:06;4.95;;;4.18;;
58260;SDS011;44058;52.898;6.502;2023-07-08T04:55:32;4.47;;;3.65;;
58260;SDS011;44058;52.898;6.502;2023-07-08T04:57:59;5.65;;;3.30;;
58260;SDS011;44058;52.898;6.502;2023-07-08T05:00:27;6.50;;;3.95;;
58260;SDS011;44058;52.898;6.502;2023-07-08T05:02:53;5.40;;;3.88;;
58260;SDS011;44058;52.898;6.502;2023-07-08T05:05:19;5.90;;;3.67;;
58260;SDS011;44058;52.898;6.502;2023-07-08T05:07:45;5.72;;;3.70;;
58260;SDS011;44058;52.898;6.502;2023-07-08T05:10:13;5.25;;;3.67;;
58260;SDS011;44058;52.898;6.502;2023-07-08T05:12:39;4.63;;;3.80;;
58260;SDS011;44058;52.898;6.502;2023-07-08T05:15:05;6.30;;;4.57;;
58260;SDS011;44058;52.898;6.502;2023-07-08T05:17:31;6.18;;;4.50;;
58260;SDS011;44058;52.898;6.502;2023-07-08T05:19:57;5.40;;;4.60;;
58260;SDS011;44058;52.898;6.502;2023-07-08T05:22:26;5.32;;;4.10;;
58260;SDS011;44058;52.898;6.502;2023-07-08T05:24:52;5.85;;;4.00;;
58260;SDS011;44058;52.898;6.502;2023-07-08T05:27:22;5.38;;;4.13;;
58260;SDS011;44058;52.898;6.502;2023-07-08T05:29:49;6.57;;;4.63;;
58260;SDS011;44058;52.898;6.502;2023-07-08T05:32:15;5.07;;;3.85;;
58260;SDS011;44058;52.898;6.502;2023-07-08T05:34:42;5.97;;;4.40;;
58260;SDS011;44058;52.898;6.502;2023-07-08T05:37:08;6.45;;;4.40;;
58260;SDS011;44058;52.898;6.502;2023-07-08T05:39:35;4.82;;;4.30;;
58260;SDS011;44058;52.898;6.502;2023-07-08T05:42:01;7.63;;;4.32;;
58260;SDS011;44058;52.898;6.502;2023-07-08T05:44:27;5.60;;;4.18;;
58260;SDS011;44058;52.898;6.502;2023-07-08T05:46:53;6.45;;;3.95;;
58260;SDS011;44058;52.898;6.502;2023-07-08T05:49:19;4.78;;;4.07;;
58260;SDS011;44058;52.898;6.502;2023-07-08T05:51:45;6.60;;;3.80;;
58260;SDS011;44058;52.898;6.502;2023-07-08T05:54:12;5.32;;;4.00;;
58260;SDS011;44058;52.898;6.502;2023-07-08T05:56:38;5.22;;;3.85;;
58260;SDS011;44058;52.898;6.502;2023-07-08T05:59:04;5.32;;;4.30;;
58260;SDS011;44058;52.898;6.502;2023-07-08T06:01:31;7.10;;;4.47;;
58260;SDS011;44058;52.898;6.502;2023-07-08T06:03:57;6.57;;;4.13;;
58260;SDS011;44058;52.898;6.502;2023-07-08T06:06:24;5.65;;;3.88;;
58260;SDS011;44058;52.898;6.502;2023-07-08T06:08:51;4.78;;;3.92;;
58260;SDS011;44058;52.898;6.502;2023-07-08T06:11:17;7.78;;;4.05;;
58260;SDS011;44058;52.898;6.502;2023-07-08T06:13:43;4.60;;;4.13;;
58260;SDS011;44058;52.898;6.502;2023-07-08T06:16:09;4.90;;;3.88;;
58260;SDS011;44058;52.898;6.502;2023-07-08T06:18:35;4.35;;;3.58;;
58260;SDS011;44058;52.898;6.502;2023-07-08T06:21:02;4.20;;;3.80;;
58260;SDS011;44058;52.898;6.502;2023-07-08T06:23:28;6.68;;;3.95;;
58260;SDS011;44058;52.898;6.502;2023-07-08T06:25:55;4.63;;;3.50;;
58260;SDS011;44058;52.898;6.502;2023-07-08T06:28:22;5.63;;;3.97;;
58260;SDS011;44058;52.898;6.502;2023-07-08T06:31:08;5.22;;;3.58;;
58260;SDS011;44058;52.898;6.502;2023-07-08T06:33:34;3.80;;;3.38;;
58260;SDS011;44058;52.898;6.502;2023-07-08T06:36:00;6.47;;;3.53;;
58260;SDS011;44058;52.898;6.502;2023-07-08T06:38:27;4.70;;;3.47;;
58260;SDS011;44058;52.898;6.502;2023-07-08T06:40:53;4.55;;;4.05;;
58260;SDS011;44058;52.898;6.502;2023-07-08T06:43:19;4.45;;;3.33;;
58260;SDS011;44058;52.898;6.502;2023-07-08T06:45:45;5.25;;;3.53;;
58260;SDS011;44058;52.898;6.502;2023-07-08T06:48:11;6.18;;;3.72;;
58260;SDS011;44058;52.898;6.502;2023-07-08T06:50:37;4.72;;;3.15;;
58260;SDS011;44058;52.898;6.502;2023-07-08T06:53:04;5.72;;;3.70;;
58260;SDS011;44058;52.898;6.502;2023-07-08T06:55:30;6.22;;;3.38;;
58260;SDS011;44058;52.898;6.502;2023-07-08T06:57:56;5.25;;;3.90;;
58260;SDS011;44058;52.898;6.502;2023-07-08T07:00:22;4.55;;;3.50;;
58260;SDS011;44058;52.898;6.502;2023-07-08T07:02:48;6.85;;;3.17;;
58260;SDS011;44058;52.898;6.502;2023-07-08T07:05:14;3.67;;;3.20;;
58260;SDS011;44058;52.898;6.502;2023-07-08T07:07:40;4.55;;;3.40;;
58260;SDS011;44058;52.898;6.502;2023-07-08T07:10:06;4.95;;;3.53;;
58260;SDS011;44058;52.898;6.502;2023-07-08T07:12:33;4.97;;;3.20;;
58260;SDS011;44058;52.898;6.502;2023-07-08T07:14:59;3.72;;;3.33;;
58260;SDS011;44058;52.898;6.502;2023-07-08T07:17:26;6.43;;;3.30;;
58260;SDS011;44058;52.898;6.502;2023-07-08T07:19:53;3.47;;;2.90;;
58260;SDS011;44058;52.898;6.502;2023-07-08T07:22:19;4.72;;;2.90;;
58260;SDS011;44058;52.898;6.502;2023-07-08T07:24:45;5.10;;;3.30;;
58260;SDS011;44058;52.898;6.502;2023-07-08T07:27:11;6.10;;;3.17;;
58260;SDS011;44058;52.898;6.502;2023-07-08T07:29:48;4.15;;;3.03;;
58260;SDS011;44058;52.898;6.502;2023-07-08T07:32:15;5.32;;;2.97;;
58260;SDS011;44058;52.898;6.502;2023-07-08T07:34:41;4.55;;;2.92;;
58260;SDS011;44058;52.898;6.502;2023-07-08T07:37:12;4.32;;;3.00;;
58260;SDS011;44058;52.898;6.502;2023-07-08T07:39:38;4.95;;;3.10;;
58260;SDS011;44058;52.898;6.502;2023-07-08T07:42:04;4.82;;;3.20;;
58260;SDS011;44058;52.898;6.502;2023-07-08T07:44:31;5.25;;;3.40;;
58260;SDS011;44058;52.898;6.502;2023-07-08T07:46:57;4.60;;;3.30;;
58260;SDS011;44058;52.898;6.502;2023-07-08T07:49:23;7.95;;;3.08;;
58260;SDS011;44058;52.898;6.502;2023-07-08T07:51:49;8.50;;;3.80;;
58260;SDS011;44058;52.898;6.502;2023-07-08T07:54:15;5.82;;;2.80;;
58260;SDS011;44058;52.898;6.502;2023-07-08T07:56:41;7.13;;;3.20;;
58260;SDS011;44058;52.898;6.502;2023-07-08T07:59:07;7.68;;;3.45;;
58260;SDS011;44058;52.898;6.502;2023-07-08T08:01:33;4.38;;;3.05;;
58260;SDS011;44058;52.898;6.502;2023-07-08T08:03:59;3.60;;;2.95;;
58260;SDS011;44058;52.898;6.502;2023-07-08T08:06:26;4.13;;;3.30;;
58260;SDS011;44058;52.898;6.502;2023-07-08T08:08:52;4.95;;;3.10;;
58260;SDS011;44058;52.898;6.502;2023-07-08T08:11:18;4.50;;;3.40;;
58260;SDS011;44058;52.898;6.502;2023-07-08T08:13:45;4.72;;;3.05;;
58260;SDS011;44058;52.898;6.502;2023-07-08T08:16:11;5.55;;;3.03;;
58260;SDS011;44058;52.898;6.502;2023-07-08T08:18:37;6.20;;;3.55;;
58260;SDS011;44058;52.898;6.502;2023-07-08T08:21:03;4.60;;;2.97;;
58260;SDS011;44058;52.898;6.502;2023-07-08T08:23:29;3.97;;;2.72;;
58260;SDS011;44058;52.898;6.502;2023-07-08T08:25:55;6.18;;;3.13;;
58260;SDS011;44058;52.898;6.502;2023-07-08T08:28:21;5.32;;;3.28;;
58260;SDS011;44058;52.898;6.502;2023-07-08T08:30:49;4.80;;;3.25;;
58260;SDS011;44058;52.898;6.502;2023-07-08T08:33:15;4.35;;;3.35;;
58260;SDS011;44058;52.898;6.502;2023-07-08T08:35:42;7.00;;;3.20;;
58260;SDS011;44058;52.898;6.502;2023-07-08T08:38:08;5.00;;;2.90;;
58260;SDS011;44058;52.898;6.502;2023-07-08T08:40:35;4.90;;;3.35;;
58260;SDS011;44058;52.898;6.502;2023-07-08T08:45:27;3.78;;;3.47;;
58260;SDS011;44058;52.898;6.502;2023-07-08T08:47:58;3.80;;;3.30;;
58260;SDS011;44058;52.898;6.502;2023-07-08T08:52:52;4.00;;;2.95;;
58260;SDS011;44058;52.898;6.502;2023-07-08T08:55:20;6.35;;;3.28;;
58260;SDS011;44058;52.898;6.502;2023-07-08T09:03:11;6.50;;;3.17;;
58260;SDS011;44058;52.898;6.502;2023-07-08T09:05:38;5.05;;;3.30;;
58260;SDS011;44058;52.898;6.502;2023-07-08T09:08:12;4.00;;;2.85;;
58260;SDS011;44058;52.898;6.502;2023-07-08T09:10:57;4.57;;;3.10;;
58260;SDS011;44058;52.898;6.502;2023-07-08T09:13:25;3.60;;;3.15;;
58260;SDS011;44058;52.898;6.502;2023-07-08T09:15:58;5.35;;;3.53;;
58260;SDS011;44058;52.898;6.502;2023-07-08T09:18:29;4.65;;;3.33;;
58260;SDS011;44058;52.898;6.502;2023-07-08T09:20:56;5.80;;;3.38;;
58260;SDS011;44058;52.898;6.502;2023-07-08T09:23:24;5.35;;;3.40;;
58260;SDS011;44058;52.898;6.502;2023-07-08T09:28:37;5.65;;;3.42;;
58260;SDS011;44058;52.898;6.502;2023-07-08T09:31:05;6.03;;;3.13;;
58260;SDS011;44058;52.898;6.502;2023-07-08T09:33:32;4.28;;;3.40;;
58260;SDS011;44058;52.898;6.502;2023-07-08T09:35:59;6.35;;;3.83;;
58260;SDS011;44058;52.898;6.502;2023-07-08T09:38:25;4.25;;;3.22;;
58260;SDS011;44058;52.898;6.502;2023-07-08T09:40:52;4.20;;;3.50;;
58260;SDS011;44058;52.898;6.502;2023-07-08T09:43:25;3.88;;;3.22;;
58260;SDS011;44058;52.898;6.502;2023-07-08T09:45:52;3.33;;;3.03;;
58260;SDS011;44058;52.898;6.502;2023-07-08T09:48:27;4.47;;;3.42;;
58260;SDS011;44058;52.898;6.502;2023-07-08T09:50:54;5.05;;;3.38;;
58260;SDS011;44058;52.898;6.502;2023-07-08T09:53:21;4.93;;;3.40;;
58260;SDS011;44058;52.898;6.502;2023-07-08T09:55:48;4.97;;;3.60;;
58260;SDS011;44058;52.898;6.502;2023-07-08T09:58:25;4.15;;;3.30;;
58260;SDS011;44058;52.898;6.502;2023-07-08T10:00:54;4.40;;;3.20;;
58260;SDS011;44058;52.898;6.502;2023-07-08T10:03:22;3.93;;;3.20;;
58260;SDS011;44058;52.898;6.502;2023-07-08T10:05:48;4.28;;;3.40;;
58260;SDS011;44058;52.898;6.502;2023-07-08T10:10:41;4.70;;;2.88;;
58260;SDS011;44058;52.898;6.502;2023-07-08T10:13:18;4.50;;;3.45;;
58260;SDS011;44058;52.898;6.502;2023-07-08T10:15:47;4.10;;;3.13;;
58260;SDS011;44058;52.898;6.502;2023-07-08T10:18:15;4.38;;;3.03;;
58260;SDS011;44058;52.898;6.502;2023-07-08T10:25:44;4.88;;;3.20;;
58260;SDS011;44058;52.898;6.502;2023-07-08T10:28:19;3.25;;;2.60;;
58260;SDS011;44058;52.898;6.502;2023-07-08T10:33:30;4.60;;;3.30;;
58260;SDS011;44058;52.898;6.502;2023-07-08T10:36:14;5.18;;;2.85;;
58260;SDS011;44058;52.898;6.502;2023-07-08T10:42:33;4.10;;;3.33;;
58260;SDS011;44058;52.898;6.502;2023-07-08T10:44:31;5.45;;;3.45;;
58260;SDS011;44058;52.898;6.502;2023-07-08T10:47:10;4.57;;;2.92;;
58260;SDS011;44058;52.898;6.502;2023-07-08T10:49:44;4.05;;;3.20;;
58260;SDS011;44058;52.898;6.502;2023-07-08T10:55:18;3.55;;;3.25;;
58260;SDS011;44058;52.898;6.502;2023-07-08T11:00:36;3.17;;;2.83;;
58260;SDS011;44058;52.898;6.502;2023-07-08T11:05:57;4.70;;;3.45;;
58260;SDS011;44058;52.898;6.502;2023-07-08T11:08:27;4.85;;;3.33;;
58260;SDS011;44058;52.898;6.502;2023-07-08T11:10:58;6.32;;;3.40;;
58260;SDS011;44058;52.898;6.502;2023-07-08T11:13:25;6.53;;;3.17;;
58260;SDS011;44058;52.898;6.502;2023-07-08T11:16:04;4.50;;;3.40;;
58260;SDS011;44058;52.898;6.502;2023-07-08T11:21:18;5.25;;;3.50;;
58260;SDS011;44058;52.898;6.502;2023-07-08T11:24:32;5.32;;;3.30;;
58260;SDS011;44058;52.898;6.502;2023-07-08T11:29:02;4.82;;;3.10;;
58260;SDS011;44058;52.898;6.502;2023-07-08T11:31:30;3.22;;;2.95;;
58260;SDS011;44058;52.898;6.502;2023-07-08T11:33:57;3.50;;;3.20;;
58260;SDS011;44058;52.898;6.502;2023-07-08T11:36:24;4.60;;;2.83;;
58260;SDS011;44058;52.898;6.502;2023-07-08T11:38:55;3.80;;;3.38;;
58260;SDS011;44058;52.898;6.502;2023-07-08T11:41:23;4.38;;;2.92;;
58260;SDS011;44058;52.898;6.502;2023-07-08T11:43:52;6.45;;;3.88;;
58260;SDS011;44058;52.898;6.502;2023-07-08T11:46:28;3.40;;;3.10;;
58260;SDS011;44058;52.898;6.502;2023-07-08T11:48:56;4.25;;;3.00;;
58260;SDS011;44058;52.898;6.502;2023-07-08T11:51:28;4.95;;;3.10;;
58260;SDS011;44058;52.898;6.502;2023-07-08T11:54:11;4.13;;;3.33;;
58260;SDS011;44058;52.898;6.502;2023-07-08T11:59:16;4.05;;;3.35;;
58260;SDS011;44058;52.898;6.502;2023-07-08T12:09:14;4.30;;;3.33;;
58260;SDS011;44058;52.898;6.502;2023-07-08T12:11:44;4.60;;;3.63;;
58260;SDS011;44058;52.898;6.502;2023-07-08T12:14:10;6.53;;;3.65;;
58260;SDS011;44058;52.898;6.502;2023-07-08T12:16:37;4.90;;;3.45;;
58260;SDS011;44058;52.898;6.502;2023-07-08T12:19:04;3.78;;;3.35;;
58260;SDS011;44058;52.898;6.502;2023-07-08T12:21:30;7.93;;;3.70;;
58260;SDS011;44058;52.898;6.502;2023-07-08T12:24:03;4.00;;;3.60;;
58260;SDS011;44058;52.898;6.502;2023-07-08T12:26:29;5.72;;;3.38;;
58260;SDS011;44058;52.898;6.502;2023-07-08T12:28:57;4.60;;;3.60;;
58260;SDS011;44058;52.898;6.502;2023-07-08T12:31:23;5.75;;;3.75;;
58260;SDS011;44058;52.898;6.502;2023-07-08T12:33:49;5.07;;;3.95;;
58260;SDS011;44058;52.898;6.502;2023-07-08T12:36:18;5.18;;;3.85;;
58260;SDS011;44058;52.898;6.502;2023-07-08T12:41:12;5.68;;;4.05;;
58260;SDS011;44058;52.898;6.502;2023-07-08T12:43:38;4.95;;;3.90;;
58260;SDS011;44058;52.898;6.502;2023-07-08T12:46:04;5.20;;;3.97;;
58260;SDS011;44058;52.898;6.502;2023-07-08T12:48:35;5.90;;;3.67;;
58260;SDS011;44058;52.898;6.502;2023-07-08T12:51:02;4.13;;;3.72;;
58260;SDS011;44058;52.898;6.502;2023-07-08T12:53:28;4.63;;;4.22;;
58260;SDS011;44058;52.898;6.502;2023-07-08T12:55:55;4.72;;;4.05;;
58260;SDS011;44058;52.898;6.502;2023-07-08T12:58:24;5.32;;;3.90;;
58260;SDS011;44058;52.898;6.502;2023-07-08T13:00:51;5.38;;;4.18;;
58260;SDS011;44058;52.898;6.502;2023-07-08T13:03:18;4.75;;;3.88;;
58260;SDS011;44058;52.898;6.502;2023-07-08T13:05:46;4.13;;;3.72;;
58260;SDS011;44058;52.898;6.502;2023-07-08T13:08:14;5.57;;;4.35;;
58260;SDS011;44058;52.898;6.502;2023-07-08T13:10:41;6.82;;;4.10;;
58260;SDS011;44058;52.898;6.502;2023-07-08T13:13:08;6.70;;;4.53;;
58260;SDS011;44058;52.898;6.502;2023-07-08T13:15:38;5.65;;;4.60;;
58260;SDS011;44058;52.898;6.502;2023-07-08T13:18:05;4.88;;;4.38;;
58260;SDS011;44058;52.898;6.502;2023-07-08T13:20:32;5.35;;;4.85;;
58260;SDS011;44058;52.898;6.502;2023-07-08T13:22:59;6.07;;;4.63;;
58260;SDS011;44058;52.898;6.502;2023-07-08T13:25:27;5.63;;;5.07;;
58260;SDS011;44058;52.898;6.502;2023-07-08T13:27:59;6.18;;;4.70;;
58260;SDS011;44058;52.898;6.502;2023-07-08T13:30:26;6.10;;;4.70;;
58260;SDS011;44058;52.898;6.502;2023-07-08T13:32:56;5.82;;;4.55;;
58260;SDS011;44058;52.898;6.502;2023-07-08T13:35:24;6.13;;;4.80;;
58260;SDS011;44058;52.898;6.502;2023-07-08T13:37:53;8.15;;;4.93;;
58260;SDS011;44058;52.898;6.502;2023-07-08T13:40:19;5.78;;;4.68;;
58260;SDS011;44058;52.898;6.502;2023-07-08T13:42:49;5.28;;;4.78;;
58260;SDS011;44058;52.898;6.502;2023-07-08T13:45:17;6.15;;;4.80;;
58260;SDS011;44058;52.898;6.502;2023-07-08T13:47:43;6.32;;;4.82;;
58260;SDS011;44058;52.898;6.502;2023-07-08T13:50:20;5.80;;;4.38;;
58260;SDS011;44058;52.898;6.502;2023-07-08T13:52:53;6.35;;;4.75;;
58260;SDS011;44058;52.898;6.502;2023-07-08T13:55:21;6.35;;;4.97;;
58260;SDS011;44058;52.898;6.502;2023-07-08T13:57:54;5.38;;;4.53;;
58260;SDS011;44058;52.898;6.502;2023-07-08T14:00:21;5.85;;;5.20;;
58260;SDS011;44058;52.898;6.502;2023-07-08T14:02:47;6.38;;;5.20;;
58260;SDS011;44058;52.898;6.502;2023-07-08T14:05:13;6.20;;;5.05;;
58260;SDS011;44058;52.898;6.502;2023-07-08T14:07:40;6.03;;;4.80;;
58260;SDS011;44058;52.898;6.502;2023-07-08T14:10:10;6.00;;;5.00;;
58260;SDS011;44058;52.898;6.502;2023-07-08T14:12:37;6.30;;;5.40;;
58260;SDS011;44058;52.898;6.502;2023-07-08T14:15:03;8.48;;;5.05;;
58260;SDS011;44058;52.898;6.502;2023-07-08T14:17:29;6.10;;;5.15;;
58260;SDS011;44058;52.898;6.502;2023-07-08T14:19:55;6.53;;;5.03;;
58260;SDS011;44058;52.898;6.502;2023-07-08T14:22:25;6.47;;;5.45;;
58260;SDS011;44058;52.898;6.502;2023-07-08T14:24:52;5.93;;;5.30;;
58260;SDS011;44058;52.898;6.502;2023-07-08T14:27:18;6.57;;;5.28;;
58260;SDS011;44058;52.898;6.502;2023-07-08T14:29:46;6.80;;;5.13;;
58260;SDS011;44058;52.898;6.502;2023-07-08T14:32:16;7.50;;;5.30;;
58260;SDS011;44058;52.898;6.502;2023-07-08T14:34:57;6.13;;;5.53;;
58260;SDS011;44058;52.898;6.502;2023-07-08T14:37:25;7.82;;;5.22;;
58260;SDS011;44058;52.898;6.502;2023-07-08T14:39:52;5.93;;;5.00;;
58260;SDS011;44058;52.898;6.502;2023-07-08T14:42:18;6.25;;;5.03;;
58260;SDS011;44058;52.898;6.502;2023-07-08T14:44:45;6.03;;;5.27;;
58260;SDS011;44058;52.898;6.502;2023-07-08T14:47:13;6.43;;;5.07;;
58260;SDS011;44058;52.898;6.502;2023-07-08T14:49:39;11.07;;;5.57;;
58260;SDS011;44058;52.898;6.502;2023-07-08T14:52:05;6.03;;;5.05;;
58260;SDS011;44058;52.898;6.502;2023-07-08T14:54:32;7.90;;;5.22;;
58260;SDS011;44058;52.898;6.502;2023-07-08T14:56:58;9.25;;;5.20;;
58260;SDS011;44058;52.898;6.502;2023-07-08T14:59:26;5.57;;;4.93;;
58260;SDS011;44058;52.898;6.502;2023-07-08T15:01:54;6.18;;;4.68;;
58260;SDS011;44058;52.898;6.502;2023-07-08T15:04:21;8.85;;;5.32;;
58260;SDS011;44058;52.898;6.502;2023-07-08T15:06:47;8.55;;;5.18;;
58260;SDS011;44058;52.898;6.502;2023-07-08T15:09:13;7.65;;;4.75;;
58260;SDS011;44058;52.898;6.502;2023-07-08T15:11:40;5.65;;;4.97;;
58260;SDS011;44058;52.898;6.502;2023-07-08T15:14:21;6.32;;;4.70;;
58260;SDS011;44058;52.898;6.502;2023-07-08T15:16:50;6.15;;;4.97;;
58260;SDS011;44058;52.898;6.502;2023-07-08T15:19:17;5.82;;;5.22;;
58260;SDS011;44058;52.898;6.502;2023-07-08T15:21:44;6.07;;;5.43;;
58260;SDS011;44058;52.898;6.502;2023-07-08T15:24:11;5.82;;;5.03;;
58260;SDS011;44058;52.898;6.502;2023-07-08T15:29:04;7.10;;;5.20;;
58260;SDS011;44058;52.898;6.502;2023-07-08T15:31:31;6.03;;;5.13;;
58260;SDS011;44058;52.898;6.502;2023-07-08T15:33:58;6.50;;;5.05;;
58260;SDS011;44058;52.898;6.502;2023-07-08T15:36:24;6.00;;;5.07;;
58260;SDS011;44058;52.898;6.502;2023-07-08T15:38:50;6.68;;;4.90;;
58260;SDS011;44058;52.898;6.502;2023-07-08T15:41:23;7.80;;;5.00;;
58260;SDS011;44058;52.898;6.502;2023-07-08T15:43:52;7.57;;;5.50;;
58260;SDS011;44058;52.898;6.502;2023-07-08T15:46:19;6.88;;;5.25;;
58260;SDS011;44058;52.898;6.502;2023-07-08T15:48:45;6.03;;;5.15;;
58260;SDS011;44058;52.898;6.502;2023-07-08T15:51:15;7.45;;;5.65;;